Time;durP1;ratioP1;P1;durP2;ratioP2;P2;SDS_P1;SDS_P2;PMS_P1;PMS_P2;Temp;Humidity;BMP_temperature;BMP_pressure;BME280_temperature;BME280_humidity;BME280_pressure;Samples;Min_cycle;Max_cycle;Signal;HPM_P1;HPM_P2
2022/08/26 00:00:33;;;;;;;10.07;4.20;;;;;;;21.07;100.00;101058.84;5071721;28;20592;-70
2022/08/26 00:03:00;;;;;;;8.00;3.57;;;;;;;21.02;100.00;101057.19;5073225;28;20448;-70
2022/08/26 00:05:27;;;;;;;7.03;3.90;;;;;;;20.99;100.00;101049.66;5073083;28;20437;-69
2022/08/26 00:07:53;;;;;;;22.53;5.10;;;;;;;20.95;100.00;101047.97;5072829;28;20445;-69
2022/08/26 00:10:21;;;;;;;11.30;4.90;;;;;;;20.97;100.00;101048.41;5071634;28;21067;-70
2022/08/26 00:12:47;;;;;;;7.67;3.53;;;;;;;20.91;100.00;101050.66;5072453;28;20469;-71
2022/08/26 00:15:18;;;;;;;9.80;4.13;;;;;;;20.92;100.00;101047.53;5073750;28;20441;-77
2022/08/26 00:17:46;;;;;;;8.30;4.20;;;;;;;20.90;100.00;101041.59;5076185;28;20541;-80
2022/08/26 00:20:16;;;;;;;5.83;4.20;;;;;;;20.88;100.00;101041.13;5080132;28;20453;-80
2022/08/26 00:22:43;;;;;;;8.10;4.80;;;;;;;20.88;100.00;101040.34;5053241;28;20453;-72
2022/08/26 00:25:11;;;;;;;6.60;3.63;;;;;;;20.89;100.00;101040.00;5052850;28;20442;-69
2022/08/26 00:27:38;;;;;;;9.93;5.00;;;;;;;20.91;100.00;101034.91;5052894;28;20445;-69
2022/08/26 00:30:08;;;;;;;5.90;3.47;;;;;;;20.90;100.00;101041.59;5052752;28;20518;-69
2022/08/26 00:32:36;;;;;;;13.93;4.37;;;;;;;20.87;100.00;101039.56;5067720;28;20457;-68
2022/08/26 00:35:04;;;;;;;8.83;4.70;;;;;;;20.81;100.00;101035.50;5072212;28;20457;-69
2022/08/26 00:37:30;;;;;;;6.70;4.17;;;;;;;20.81;100.00;101030.00;5072665;28;20485;-69
2022/08/26 00:39:57;;;;;;;11.07;5.30;;;;;;;20.79;100.00;101032.28;5072640;28;20447;-70
2022/08/26 00:42:24;;;;;;;11.50;4.50;;;;;;;20.80;100.00;101036.63;5073493;28;20489;-69
2022/08/26 00:44:50;;;;;;;6.93;4.07;;;;;;;20.74;100.00;101032.56;5075891;28;20473;-70
2022/08/26 00:47:24;;;;;;;8.20;4.20;;;;;;;20.71;100.00;101027.78;5076114;28;20445;-69
2022/08/26 00:49:52;;;;;;;13.03;4.17;;;;;;;20.65;100.00;101027.25;5076056;28;20907;-69
2022/08/26 00:52:22;;;;;;;8.37;4.40;;;;;;;20.64;100.00;101024.88;5075284;28;20445;-70
2022/08/26 00:54:55;;;;;;;8.83;4.10;;;;;;;20.56;100.00;101025.88;5075951;28;20952;-69
2022/08/26 00:57:22;;;;;;;13.23;4.50;;;;;;;20.58;100.00;101020.78;5075996;28;20465;-69
2022/08/26 00:59:53;;;;;;;8.00;4.83;;;;;;;20.59;100.00;101028.69;5075972;28;20429;-69
2022/08/26 01:02:19;;;;;;;7.73;4.70;;;;;;;20.56;100.00;101023.91;5076225;28;20432;-70
2022/08/26 01:04:47;;;;;;;6.27;3.77;;;;;;;20.54;100.00;101023.47;5075006;28;20464;-69
2022/08/26 01:07:15;;;;;;;8.53;4.57;;;;;;;20.53;100.00;101026.56;5076054;28;20445;-69
2022/08/26 01:09:42;;;;;;;10.50;5.00;;;;;;;20.51;100.00;101026.94;5075930;28;20444;-69
2022/08/26 01:12:08;;;;;;;6.60;3.90;;;;;;;20.51;100.00;101028.91;5075981;28;20437;-69
2022/08/26 01:14:36;;;;;;;8.80;4.80;;;;;;;20.52;100.00;101017.53;5074485;28;20457;-69
2022/08/26 01:17:05;;;;;;;6.97;3.87;;;;;;;20.54;100.00;101017.97;5072283;28;20534;-68
2022/08/26 01:19:38;;;;;;;8.97;3.53;;;;;;;20.56;100.00;101017.59;5075835;28;20441;-69
2022/08/26 01:22:10;;;;;;;7.90;4.90;;;;;;;20.60;100.00;101019.28;5075791;28;20441;-69
2022/08/26 01:24:39;;;;;;;6.70;3.87;;;;;;;20.62;100.00;101025.22;5074807;28;20462;-69
2022/08/26 01:27:07;;;;;;;6.40;3.80;;;;;;;20.64;100.00;101022.91;5074555;28;20458;-68
2022/08/26 01:29:37;;;;;;;9.37;4.50;;;;;;;20.68;100.00;101014.75;5075561;28;20441;-69
2022/08/26 01:32:08;;;;;;;8.83;5.07;;;;;;;20.71;100.00;101019.50;5075288;28;20929;-70
2022/08/26 01:34:37;;;;;;;9.97;5.23;;;;;;;20.72;100.00;101023.06;5075327;28;20430;-69
2022/08/26 01:37:08;;;;;;;11.77;5.60;;;;;;;20.73;100.00;101022.72;5074774;28;20496;-70
2022/08/26 01:39:36;;;;;;;11.00;4.27;;;;;;;20.74;100.00;101018.00;5075537;28;20514;-70
2022/08/26 01:42:07;;;;;;;8.10;4.47;;;;;;;20.74;100.00;101018.81;5075587;28;20476;-70
2022/08/26 01:44:39;;;;;;;12.10;4.50;;;;;;;20.75;100.00;101014.88;5075593;28;20818;-69
2022/08/26 01:47:06;;;;;;;10.17;5.03;;;;;;;20.78;100.00;101014.19;5074264;28;20958;-70
2022/08/26 01:49:35;;;;;;;8.30;5.10;;;;;;;20.80;100.00;101011.06;5075409;28;20452;-69
2022/08/26 01:52:03;;;;;;;8.97;4.67;;;;;;;20.83;100.00;101008.38;5074644;28;20485;-71
2022/08/26 01:54:30;;;;;;;8.17;4.60;;;;;;;20.83;100.00;101005.63;5075042;28;20800;-68
2022/08/26 01:56:57;;;;;;;9.57;4.90;;;;;;;20.84;100.00;101009.19;5074038;28;20488;-70
2022/08/26 01:59:25;;;;;;;9.07;4.87;;;;;;;20.85;100.00;101003.31;5075074;28;20494;-69
2022/08/26 02:01:52;;;;;;;7.10;4.03;;;;;;;20.86;100.00;100996.66;5074625;28;20481;-69
2022/08/26 02:04:24;;;;;;;10.40;5.63;;;;;;;20.89;100.00;100998.69;5074082;28;20954;-70
2022/08/26 02:06:51;;;;;;;10.77;5.30;;;;;;;20.91;100.00;100999.13;5073977;28;20425;-70
2022/08/26 02:09:19;;;;;;;10.80;5.20;;;;;;;20.91;100.00;101001.88;5074654;28;20805;-70
2022/08/26 02:11:47;;;;;;;11.40;5.80;;;;;;;20.92;100.00;100997.94;5074708;28;20832;-70
2022/08/26 02:14:16;;;;;;;8.17;5.23;;;;;;;20.92;100.00;100997.94;5074695;28;20449;-70
2022/08/26 02:16:47;;;;;;;10.60;4.97;;;;;;;20.91;100.00;100996.38;5074532;28;20477;-70
2022/08/26 02:19:15;;;;;;;13.33;5.90;;;;;;;20.89;100.00;100995.94;5073724;28;20458;-71
2022/08/26 02:21:43;;;;;;;9.00;4.90;;;;;;;20.94;100.00;100999.53;5074578;28;20832;-70
2022/08/26 02:24:12;;;;;;;9.70;5.10;;;;;;;20.94;100.00;101005.06;5074558;28;20460;-71
2022/08/26 02:26:39;;;;;;;10.77;5.30;;;;;;;20.92;100.00;101003.47;5074519;28;20451;-70
2022/08/26 02:29:13;;;;;;;8.63;4.90;;;;;;;20.91;100.00;100995.56;5073310;28;20465;-71
2022/08/26 02:31:39;;;;;;;9.37;5.63;;;;;;;20.88;100.00;100997.06;5074409;28;20458;-70
2022/08/26 02:34:12;;;;;;;17.53;5.73;;;;;;;20.89;100.00;100987.69;5074095;28;20934;-71
2022/08/26 02:36:39;;;;;;;12.03;5.13;;;;;;;20.87;100.00;100992.72;5074231;28;20437;-71
2022/08/26 02:39:06;;;;;;;7.50;4.90;;;;;;;20.83;100.00;100989.09;5073306;28;20839;-71
2022/08/26 02:41:32;;;;;;;7.40;4.83;;;;;;;20.82;100.00;100994.97;5073629;28;20547;-71
2022/08/26 02:43:59;;;;;;;7.57;4.50;;;;;;;20.77;100.00;100990.56;5073886;28;20946;-72
2022/08/26 02:46:26;;;;;;;8.07;4.43;;;;;;;20.74;100.00;100991.28;5073347;28;20465;-71
2022/08/26 02:48:52;;;;;;;8.00;5.23;;;;;;;20.71;100.00;100989.22;5073772;28;20826;-71
2022/08/26 02:51:20;;;;;;;8.30;4.80;;;;;;;20.70;100.00;100995.91;5073004;28;20482;-71
2022/08/26 02:53:47;;;;;;;10.87;5.77;;;;;;;20.66;100.00;100995.81;5074048;28;20441;-71
2022/08/26 02:56:13;;;;;;;6.67;4.10;;;;;;;20.63;100.00;100990.25;5074714;28;20441;-73
2022/08/26 02:58:40;;;;;;;8.00;4.60;;;;;;;20.60;100.00;100986.25;5072740;28;20485;-71
2022/08/26 03:01:06;;;;;;;7.07;3.70;;;;;;;20.55;100.00;100992.03;5098125;22;20480;-71
2022/08/26 03:03:33;;;;;;;6.70;4.33;;;;;;;20.52;100.00;100984.50;5053483;28;20802;-68
2022/08/26 03:05:59;;;;;;;7.40;3.80;;;;;;;20.52;100.00;100983.69;5053420;28;20438;-66
2022/08/26 03:08:27;;;;;;;11.17;5.40;;;;;;;20.50;100.00;100975.81;5052244;28;20442;-69
2022/08/26 03:10:54;;;;;;;6.50;3.67;;;;;;;20.47;100.00;100979.22;5073071;28;20454;-67
2022/08/26 03:13:20;;;;;;;14.20;6.20;;;;;;;20.42;100.00;100977.56;5073678;28;20514;-67
2022/08/26 03:15:46;;;;;;;18.00;5.47;;;;;;;20.46;100.00;100991.41;5073515;28;20489;-67
2022/08/26 03:18:13;;;;;;;10.87;5.13;;;;;;;20.42;100.00;100968.50;5073643;28;20488;-69
2022/08/26 03:20:39;;;;;;;7.17;4.53;;;;;;;20.42;100.00;100977.56;5069388;28;20461;-69
2022/08/26 03:23:06;;;;;;;8.50;4.73;;;;;;;20.45;100.00;100970.53;5070339;28;21063;-67
2022/08/26 03:25:34;;;;;;;12.23;5.07;;;;;;;20.46;100.00;100976.84;5070730;28;20862;-67
2022/08/26 03:28:00;;;;;;;7.57;4.30;;;;;;;20.44;100.00;100977.19;5073243;28;20444;-67
2022/08/26 03:30:38;;;;;;;8.07;4.20;;;;;;;20.41;100.00;100966.91;5069283;28;20454;-67
2022/08/26 03:33:05;;;;;;;10.70;5.53;;;;;;;20.38;100.00;100973.94;5073343;28;20480;-67
2022/08/26 03:35:33;;;;;;;9.67;5.70;;;;;;;20.38;100.00;100968.41;5073451;28;20446;-68
2022/08/26 03:38:01;;;;;;;12.30;5.33;;;;;;;20.37;100.00;100975.09;5054050;28;20486;-67
2022/08/26 03:40:28;;;;;;;10.10;4.97;;;;;;;20.36;100.00;100962.50;5070992;28;20460;-67
2022/08/26 03:42:55;;;;;;;6.73;4.63;;;;;;;20.37;100.00;100964.09;5073370;28;20461;-68
2022/08/26 03:45:22;;;;;;;10.40;6.20;;;;;;;20.37;100.00;100969.59;5065918;28;20484;-69
2022/08/26 03:47:48;;;;;;;11.47;5.67;;;;;;;20.37;100.00;100972.34;5049459;28;20445;-68
2022/08/26 03:50:17;;;;;;;12.50;5.73;;;;;;;20.40;100.00;100968.84;5053271;28;20442;-69
2022/08/26 03:52:45;;;;;;;8.10;4.27;;;;;;;20.40;100.00;100965.31;5055165;28;20486;-68
2022/08/26 03:55:12;;;;;;;12.10;5.33;;;;;;;20.39;100.00;100964.50;5071697;28;20466;-68
2022/08/26 03:57:38;;;;;;;9.70;5.43;;;;;;;20.38;100.00;100956.63;5071253;28;20489;-68
2022/08/26 04:00:10;;;;;;;12.00;5.27;;;;;;;20.36;100.00;100958.91;5069578;28;20468;-67
2022/08/26 04:02:37;;;;;;;11.50;5.27;;;;;;;20.36;100.00;100958.91;5072732;28;20477;-68
2022/08/26 04:05:04;;;;;;;8.97;4.83;;;;;;;20.34;100.00;100958.50;5059044;28;20572;-68
2022/08/26 04:07:30;;;;;;;10.33;5.00;;;;;;;20.38;100.00;100956.63;5067296;28;20457;-67
2022/08/26 04:09:57;;;;;;;10.60;5.20;;;;;;;20.38;100.00;100951.91;5073150;28;20441;-69
2022/08/26 04:12:25;;;;;;;9.13;5.07;;;;;;;20.42;100.00;100950.03;5073047;28;20491;-68
2022/08/26 04:14:52;;;;;;;8.00;4.97;;;;;;;20.40;100.00;100955.09;5073082;28;20433;-68
2022/08/26 04:17:20;;;;;;;8.73;5.17;;;;;;;20.47;100.00;100959.19;5074755;28;20437;-67
2022/08/26 04:19:46;;;;;;;8.30;4.67;;;;;;;20.48;100.00;100958.03;5077201;28;20543;-68
2022/08/26 04:22:13;;;;;;;9.20;5.47;;;;;;;20.48;100.00;100955.28;5076712;28;20973;-68
2022/08/26 04:24:39;;;;;;;8.87;5.13;;;;;;;20.51;100.00;100954.59;5077140;28;20570;-68
2022/08/26 04:27:06;;;;;;;10.90;5.90;;;;;;;20.54;100.00;100953.84;5077051;28;20448;-69
2022/08/26 04:29:33;;;;;;;9.50;5.30;;;;;;;20.52;100.00;100950.66;5076607;28;20454;-68
2022/08/26 04:31:59;;;;;;;8.40;4.30;;;;;;;20.52;100.00;100948.72;5076782;28;20809;-66
2022/08/26 04:34:28;;;;;;;8.40;4.80;;;;;;;20.51;100.00;100943.56;5076737;28;20437;-68
2022/08/26 04:36:56;;;;;;;8.33;4.77;;;;;;;20.51;100.00;100946.31;5076683;28;20460;-68
2022/08/26 04:39:23;;;;;;;8.23;4.50;;;;;;;20.50;100.00;100953.00;5076617;28;20524;-67
2022/08/26 04:41:50;;;;;;;15.83;5.53;;;;;;;20.51;100.00;100949.06;5076506;28;20457;-68
2022/08/26 04:44:17;;;;;;;10.47;5.40;;;;;;;20.54;100.00;100953.84;5076611;28;20531;-67
2022/08/26 04:46:44;;;;;;;10.60;5.40;;;;;;;20.55;100.00;100941.69;5076612;28;20448;-67
2022/08/26 04:49:11;;;;;;;9.30;5.43;;;;;;;20.56;100.00;100944.09;5076558;28;20433;-67
2022/08/26 04:51:39;;;;;;;8.07;4.50;;;;;;;20.57;100.00;100947.63;5076543;28;20457;-67
2022/08/26 04:54:06;;;;;;;10.63;5.80;;;;;;;20.58;100.00;100951.97;5076187;28;20433;-68
2022/08/26 04:56:36;;;;;;;16.57;5.47;;;;;;;20.63;100.00;100948.97;5076430;28;20445;-67
2022/08/26 04:59:04;;;;;;;9.93;5.03;;;;;;;20.65;100.00;100955.69;5076177;28;20519;-67
2022/08/26 05:01:31;;;;;;;13.33;6.13;;;;;;;20.69;100.00;100953.00;5076112;28;20477;-67
2022/08/26 05:03:58;;;;;;;9.47;5.23;;;;;;;20.72;100.00;100959.72;5076376;28;20835;-67
2022/08/26 05:06:25;;;;;;;12.07;5.63;;;;;;;20.76;100.00;100961.44;5076252;28;20448;-68
2022/08/26 05:08:53;;;;;;;8.80;5.23;;;;;;;20.80;100.00;100961.50;5076255;28;20441;-69
2022/08/26 05:11:20;;;;;;;11.70;5.20;;;;;;;20.80;100.00;100962.28;5076191;28;20465;-70
2022/08/26 05:13:47;;;;;;;11.00;5.57;;;;;;;20.83;100.00;100966.28;5075923;28;20445;-72
2022/08/26 05:16:15;;;;;;;10.40;5.70;;;;;;;20.85;100.00;100970.28;5076139;28;20456;-71
2022/08/26 05:18:43;;;;;;;14.20;5.60;;;;;;;20.87;100.00;100967.94;5075954;28;20899;-70
2022/08/26 05:21:17;;;;;;;12.73;6.87;;;;;;;20.89;100.00;100965.66;5076067;28;20473;-70
2022/08/26 05:23:43;;;;;;;9.27;5.90;;;;;;;20.89;100.00;100965.66;5076191;28;20436;-70
2022/08/26 05:26:11;;;;;;;9.50;5.97;;;;;;;20.92;100.00;100966.88;5076057;28;20433;-70
2022/08/26 05:28:38;;;;;;;10.77;5.40;;;;;;;20.95;100.00;100979.13;5075411;28;20437;-70
2022/08/26 05:31:12;;;;;;;10.77;5.93;;;;;;;21.02;100.00;100977.28;5076040;28;20453;-71
2022/08/26 05:33:38;;;;;;;15.63;6.50;;;;;;;21.12;100.00;100973.19;5075576;28;20905;-70
2022/08/26 05:36:08;;;;;;;11.00;6.63;;;;;;;21.21;100.00;100976.50;5075813;28;20503;-71
2022/08/26 05:38:34;;;;;;;11.47;6.60;;;;;;;21.27;100.00;100975.03;5075787;28;20472;-71
2022/08/26 05:41:01;;;;;;;15.60;6.00;;;;;;;21.36;100.00;100974.84;5075397;28;20454;-70
2022/08/26 05:43:29;;;;;;;10.30;5.80;;;;;;;21.40;100.00;100973.75;5075334;28;20934;-70
2022/08/26 05:45:56;;;;;;;8.90;5.23;;;;;;;21.44;100.00;100962.00;5075632;28;20449;-71
2022/08/26 05:48:22;;;;;;;13.30;6.10;;;;;;;21.48;100.00;100962.88;5075482;28;20948;-70
2022/08/26 05:50:51;;;;;;;8.83;5.50;;;;;;;21.52;100.00;100964.53;5075694;28;20794;-70
2022/08/26 05:53:20;;;;;;;13.93;5.30;;;;;;;21.57;100.00;100960.69;5075431;28;20472;-71
2022/08/26 05:55:48;;;;;;;9.43;6.20;;;;;;;21.59;100.00;100959.13;5075511;28;20429;-70
2022/08/26 05:58:15;;;;;;;8.30;4.70;;;;;;;21.65;100.00;100956.88;5075261;28;20500;-69
2022/08/26 06:00:43;;;;;;;10.00;5.87;;;;;;;21.69;100.00;100966.00;5074960;28;20494;-67
2022/08/26 06:03:10;;;;;;;9.90;5.87;;;;;;;21.78;100.00;100968.50;5074667;28;20556;-71
2022/08/26 06:05:38;;;;;;;11.13;4.97;;;;;;;21.83;100.00;100970.97;5074916;28;20938;-71
2022/08/26 06:08:12;;;;;;;15.20;6.13;;;;;;;21.85;100.00;100974.94;5075343;28;20449;-71
2022/08/26 06:10:43;;;;;;;11.93;6.10;;;;;;;21.95;100.00;100969.97;5075377;28;20433;-71
2022/08/26 06:13:10;;;;;;;13.37;5.50;;;;;;;22.03;100.00;100966.16;5075020;28;20464;-71
2022/08/26 06:15:39;;;;;;;8.23;5.33;;;;;;;22.09;100.00;100972.97;5074924;28;20491;-71
2022/08/26 06:18:07;;;;;;;10.00;4.50;;;;;;;22.16;100.00;100967.59;5075008;28;20576;-71
2022/08/26 06:20:35;;;;;;;15.70;5.63;;;;;;;22.23;100.00;100976.00;5074923;28;20460;-70
2022/08/26 06:25:45;;;;;;;10.63;5.90;;;;;;;22.38;100.00;100969.50;5074656;28;20421;-69
2022/08/26 06:28:14;;;;;;;13.60;5.53;;;;;;;22.44;100.00;100969.97;5074800;28;20445;-69
2022/08/26 06:30:41;;;;;;;9.67;6.07;;;;;;;22.51;100.00;100970.09;5074603;28;20506;-70
2022/08/26 06:33:09;;;;;;;11.10;5.60;;;;;;;22.59;100.00;100971.00;5074322;28;20470;-70
2022/08/26 06:35:37;;;;;;;8.40;5.30;;;;;;;22.64;100.00;100962.38;5074695;28;20493;-70
2022/08/26 06:38:03;;;;;;;10.13;5.57;;;;;;;22.74;100.00;100971.97;5074480;28;20448;-70
2022/08/26 06:40:30;;;;;;;10.73;6.00;;;;;;;22.81;100.00;100967.34;5073453;28;20445;-70
2022/08/26 06:42:56;;;;;;;8.90;5.50;;;;;;;22.90;100.00;100972.63;5074230;28;20852;-71
2022/08/26 06:45:23;;;;;;;10.87;5.87;;;;;;;22.99;100.00;100972.34;5074457;28;20444;-70
2022/08/26 06:47:49;;;;;;;21.67;6.47;;;;;;;23.03;100.00;100970.41;5074174;28;20445;-70
2022/08/26 06:50:17;;;;;;;10.43;5.87;;;;;;;23.11;100.00;100972.88;5074244;28;20437;-69
2022/08/26 06:52:44;;;;;;;12.07;4.70;;;;;;;23.19;100.00;100972.94;5073860;28;20461;-69
2022/08/26 06:55:10;;;;;;;7.57;5.20;;;;;;;23.24;100.00;100967.06;5073828;28;20452;-69
2022/08/26 06:57:37;;;;;;;9.27;5.20;;;;;;;23.34;100.00;100964.44;5074113;28;20440;-70
2022/08/26 07:00:06;;;;;;;8.33;5.10;;;;;;;23.45;100.00;100961.78;5074007;28;20543;-69
2022/08/26 07:02:34;;;;;;;10.33;5.87;;;;;;;23.48;100.00;100966.56;5073614;28;20888;-69
2022/08/26 07:05:00;;;;;;;11.77;5.70;;;;;;;23.58;100.00;100959.53;5073368;28;20437;-66
2022/08/26 07:07:28;;;;;;;11.03;4.73;;;;;;;23.63;100.00;100971.03;5073764;28;20470;-70
2022/08/26 07:09:54;;;;;;;8.03;5.27;;;;;;;23.72;100.00;100962.47;5073288;28;20446;-69
2022/08/26 07:12:21;;;;;;;8.97;5.80;;;;;;;23.77;100.00;100956.56;5073250;28;20461;-68
2022/08/26 07:14:48;;;;;;;13.10;4.27;;;;;;;23.84;100.00;100955.84;5073915;28;20448;-69
2022/08/26 07:17:14;;;;;;;6.97;4.53;;;;;;;23.91;100.00;100956.72;5073836;28;20463;-70
2022/08/26 07:19:41;;;;;;;8.30;5.20;;;;;;;24.00;100.00;100953.63;5073379;28;21017;-69
2022/08/26 07:22:08;;;;;;;8.90;5.33;;;;;;;24.04;100.00;100948.91;5073665;28;20925;-69
2022/08/26 07:24:39;;;;;;;7.20;4.33;;;;;;;24.11;100.00;100948.16;5073338;28;20449;-69
2022/08/26 07:27:08;;;;;;;7.13;4.63;;;;;;;24.16;100.00;100945.81;5073747;28;20462;-69
2022/08/26 07:29:36;;;;;;;9.97;4.10;;;;;;;24.25;99.63;100948.25;5073629;28;20433;-69
2022/08/26 07:32:03;;;;;;;8.37;4.70;;;;;;;24.33;98.81;100949.09;5073588;28;20468;-69
2022/08/26 07:34:31;;;;;;;6.83;4.43;;;;;;;24.37;98.72;100949.94;5073234;28;20998;-69
2022/08/26 07:36:59;;;;;;;12.80;5.53;;;;;;;24.44;97.83;100949.19;5073162;28;20442;-69
2022/08/26 07:39:27;;;;;;;10.70;4.60;;;;;;;24.49;97.82;100954.38;5073321;28;20477;-69
2022/08/26 07:41:55;;;;;;;8.03;4.97;;;;;;;24.61;98.26;100959.56;5073445;28;20499;-70
2022/08/26 07:44:22;;;;;;;16.57;5.53;;;;;;;24.74;97.72;100955.28;5073338;28;20441;-70
2022/08/26 07:46:48;;;;;;;9.83;5.07;;;;;;;24.80;97.53;100950.97;5073419;28;20453;-69
2022/08/26 07:49:16;;;;;;;8.87;4.80;;;;;;;24.89;97.27;100951.41;5073495;28;20448;-69
2022/08/26 07:51:43;;;;;;;9.13;3.90;;;;;;;25.00;96.40;100953.41;5073273;28;20473;-69
2022/08/26 07:54:09;;;;;;;10.30;4.27;;;;;;;25.06;96.76;100952.66;5073434;28;20449;-69
2022/08/26 07:56:36;;;;;;;12.80;4.47;;;;;;;25.15;95.83;100955.09;5073291;28;20445;-69
2022/08/26 07:59:04;;;;;;;9.27;5.13;;;;;;;25.19;95.53;100952.31;5073124;28;20477;-69
2022/08/26 08:01:30;;;;;;;10.60;4.70;;;;;;;25.25;94.53;100945.22;5073107;28;20830;-70
2022/08/26 08:03:59;;;;;;;9.80;5.30;;;;;;;25.30;93.52;100950.38;5072885;28;20448;-70
2022/08/26 08:06:26;;;;;;;6.93;4.20;;;;;;;25.29;93.28;100943.25;5073283;28;20883;-70
2022/08/26 08:08:54;;;;;;;7.60;4.53;;;;;;;25.29;93.70;100946.81;5072991;28;20839;-70
2022/08/26 08:11:20;;;;;;;11.93;4.87;;;;;;;25.29;94.18;100946.00;5072680;28;20850;-68
2022/08/26 08:13:48;;;;;;;10.63;4.90;;;;;;;25.32;94.03;100943.25;5073022;28;20441;-68
2022/08/26 08:16:17;;;;;;;14.00;4.30;;;;;;;25.38;93.79;100946.44;5072731;28;20502;-69
2022/08/26 08:18:44;;;;;;;7.57;4.50;;;;;;;25.44;94.47;100946.81;5072888;28;20481;-68
2022/08/26 08:21:10;;;;;;;10.63;5.23;;;;;;;25.50;93.39;100934.97;5072574;28;20859;-68
2022/08/26 08:23:36;;;;;;;7.77;4.27;;;;;;;25.49;92.03;100940.88;5072945;28;20445;-68
2022/08/26 08:26:05;;;;;;;15.30;5.30;;;;;;;25.46;90.79;100944.47;5072995;28;20441;-68
2022/08/26 08:28:32;;;;;;;14.00;4.10;;;;;;;25.55;89.66;100947.66;5072805;28;20504;-67
2022/08/26 08:30:59;;;;;;;7.50;3.43;;;;;;;25.60;89.76;100941.69;5061991;28;20462;-68
2022/08/26 08:33:28;;;;;;;11.27;4.63;;;;;;;25.72;89.39;100941.31;5052850;28;20435;-68
2022/08/26 08:35:55;;;;;;;7.00;4.10;;;;;;;25.80;89.89;100939.34;5050666;28;20505;-67
2022/08/26 08:38:22;;;;;;;7.03;4.03;;;;;;;25.86;90.73;100935.00;5050617;28;20457;-69
2022/08/26 08:40:48;;;;;;;7.43;3.50;;;;;;;25.87;90.45;100929.03;5051843;28;20458;-69
2022/08/26 08:43:22;;;;;;;19.40;4.60;;;;;;;25.91;89.73;100929.84;5051198;28;20536;-65
2022/08/26 08:45:52;;;;;;;7.83;3.93;;;;;;;26.02;89.26;100924.25;5052710;28;20441;-66
2022/08/26 08:48:24;;;;;;;7.90;3.33;;;;;;;26.14;89.15;100936.94;5051790;28;20458;-66
2022/08/26 08:50:55;;;;;;;10.00;4.80;;;;;;;26.20;87.62;100929.00;5052069;28;20851;-69
2022/08/26 08:53:30;;;;;;;5.70;3.30;;;;;;;26.25;86.63;100920.25;5050076;28;20536;-69
2022/08/26 08:56:07;;;;;;;7.50;3.40;;;;;;;26.37;87.24;100925.38;5052127;28;20480;-69
2022/08/26 08:58:47;;;;;;;9.20;4.03;;;;;;;26.52;87.62;100920.59;5052598;28;20434;-67
2022/08/26 09:01:25;;;;;;;9.10;4.47;;;;;;;26.54;87.00;100909.91;5051307;28;20472;-68
2022/08/26 09:04:00;;;;;;;8.20;4.20;;;;;;;26.70;85.82;100910.25;5075713;22;20498;-70
2022/08/26 09:06:28;;;;;;;7.80;2.80;;;;;;;26.84;85.97;100914.94;5054366;28;20461;-71
2022/08/26 09:08:56;;;;;;;42.57;4.43;;;;;;;26.89;85.72;100911.72;5055023;28;20458;-69
2022/08/26 09:11:23;;;;;;;7.97;3.80;;;;;;;27.05;85.44;100900.09;5055990;28;20451;-69
2022/08/26 09:13:51;;;;;;;9.63;4.57;;;;;;;27.27;85.11;100907.19;5052595;28;21010;-71
2022/08/26 09:16:23;;;;;;;9.43;5.20;;;;;;;27.38;83.38;100912.66;5053236;28;20464;-72
2022/08/26 09:19:06;;;;;;;5.80;3.33;;;;;;;27.46;81.19;100908.63;5055188;28;20458;-72
2022/08/26 09:21:34;;;;;;;10.57;3.47;;;;;;;27.65;79.72;100912.84;5055781;28;20438;-72
2022/08/26 09:24:01;;;;;;;7.80;3.47;;;;;;;27.76;78.74;100913.59;5055958;28;20501;-71
2022/08/26 09:26:29;;;;;;;7.23;3.27;;;;;;;27.94;78.90;100904.28;5054342;28;20450;-71
2022/08/26 09:28:59;;;;;;;6.80;3.20;;;;;;;28.10;77.24;100902.50;5056000;28;20993;-72
2022/08/26 09:31:28;;;;;;;11.83;3.80;;;;;;;28.29;76.71;100908.66;5054797;28;20458;-72
2022/08/26 09:34:13;;;;;;;7.87;3.57;;;;;;;28.50;76.06;100899.31;5051370;28;20903;-72
2022/08/26 09:36:43;;;;;;;11.93;3.60;;;;;;;28.65;76.08;100906.31;5054689;28;20458;-71
2022/08/26 09:39:28;;;;;;;7.20;3.10;;;;;;;28.50;73.31;100907.69;5054001;28;20478;-71
2022/08/26 09:42:03;;;;;;;5.10;2.83;;;;;;;28.48;74.53;100902.53;5039299;28;20442;-74
2022/08/26 09:44:30;;;;;;;12.77;3.33;;;;;;;28.48;75.47;100898.97;5035616;28;20431;-71
2022/08/26 09:47:01;;;;;;;13.10;3.73;;;;;;;28.64;76.25;100897.16;5047409;28;20490;-71
2022/08/26 09:49:31;;;;;;;7.73;3.03;;;;;;;28.78;74.66;100890.59;5054729;28;20452;-72
2022/08/26 09:52:17;;;;;;;9.50;2.70;;;;;;;28.89;74.26;100885.66;5053650;28;20473;-72
2022/08/26 09:54:45;;;;;;;6.70;2.33;;;;;;;28.97;70.97;100883.59;5035437;28;20438;-72
2022/08/26 09:57:21;;;;;;;12.63;3.47;;;;;;;29.03;71.39;100878.31;5047374;28;20849;-71
2022/08/26 09:59:48;;;;;;;8.30;2.90;;;;;;;29.00;71.57;100876.38;5052968;28;20536;-72
2022/08/26 10:02:29;;;;;;;8.30;3.50;;;;;;;29.01;70.47;100875.19;5054839;28;20556;-71
2022/08/26 10:04:58;;;;;;;7.50;2.90;;;;;;;29.03;70.63;100862.38;5053795;28;20458;-71
2022/08/26 10:07:40;;;;;;;9.70;3.33;;;;;;;28.94;70.53;100858.50;5055012;28;20446;-70
2022/08/26 10:10:12;;;;;;;5.90;2.93;;;;;;;28.85;69.87;100854.25;5052987;28;20457;-73
2022/08/26 10:12:47;;;;;;;14.73;3.93;;;;;;;29.00;70.46;100857.66;5056396;28;20466;-72
2022/08/26 10:15:15;;;;;;;18.17;3.70;;;;;;;29.10;71.28;100844.75;5053593;28;20798;-70
2022/08/26 10:17:49;;;;;;;11.93;3.20;;;;;;;29.16;69.75;100838.25;5053830;28;20469;-69
2022/08/26 10:20:21;;;;;;;12.30;3.50;;;;;;;29.30;69.76;100831.66;5054730;28;20470;-71
2022/08/26 10:22:55;;;;;;;7.13;3.20;;;;;;;29.49;68.89;100827.38;5053791;28;20489;-72
2022/08/26 10:25:27;;;;;;;8.20;3.67;;;;;;;29.69;69.81;100816.25;5054777;28;20433;-72
2022/08/26 10:28:01;;;;;;;8.70;3.60;;;;;;;29.99;69.49;100814.50;5053640;28;20494;-72
2022/08/26 10:30:34;;;;;;;7.77;3.13;;;;;;;30.18;68.71;100822.13;5053939;28;20481;-72
2022/08/26 10:33:05;;;;;;;6.93;3.20;;;;;;;30.37;66.03;100818.56;5053871;28;20486;-73
2022/08/26 10:35:33;;;;;;;10.27;3.07;;;;;;;30.50;67.66;100820.66;5054492;28;20427;-72
2022/08/26 10:38:09;;;;;;;6.67;2.90;;;;;;;30.44;65.06;100817.59;5051986;28;20452;-71
2022/08/26 10:40:46;;;;;;;8.73;3.17;;;;;;;30.35;65.93;100812.59;5052513;28;20470;-73
2022/08/26 10:43:17;;;;;;;15.27;3.90;;;;;;;30.02;66.09;100803.28;5052574;28;20860;-72
2022/08/26 10:45:49;;;;;;;6.97;3.17;;;;;;;29.87;67.19;100785.97;5054321;28;20426;-71
2022/08/26 10:48:21;;;;;;;5.83;3.27;;;;;;;29.78;68.23;100785.75;5047151;28;20463;-71
2022/08/26 10:50:48;;;;;;;7.27;3.13;;;;;;;29.85;68.00;100782.06;5043963;28;20959;-71
2022/08/26 10:53:20;;;;;;;16.93;3.40;;;;;;;29.69;67.38;100785.53;5054093;28;20470;-71
2022/08/26 10:55:59;;;;;;;6.20;3.27;;;;;;;29.75;68.89;100786.66;5052621;28;20458;-71
2022/08/26 10:58:36;;;;;;;10.17;4.27;;;;;;;29.57;66.22;100784.19;5053902;28;20430;-72
2022/08/26 11:04:06;;;;;;;4.10;2.70;;;;;;;29.61;66.24;100773.72;5033641;28;20549;-70
2022/08/26 11:06:32;;;;;;;9.87;3.77;;;;;;;29.47;66.22;100775.97;5050623;28;20445;-71
2022/08/26 11:09:02;;;;;;;5.40;3.30;;;;;;;29.48;66.30;100775.53;5051327;28;20446;-72
2022/08/26 11:11:47;;;;;;;5.93;2.93;;;;;;;29.51;67.67;100780.25;5043351;28;20501;-72
2022/08/26 11:14:36;;;;;;;7.07;2.90;;;;;;;29.14;63.44;100796.06;5051347;28;20489;-73
2022/08/26 11:17:03;;;;;;;6.03;2.20;;;;;;;28.74;61.51;100800.63;5044387;28;20541;-71
2022/08/26 11:20:00;;;;;;;3.97;1.93;;;;;;;28.22;61.49;100809.25;5045291;28;20469;-72
2022/08/26 11:22:29;;;;;;;5.50;1.60;;;;;;;27.68;63.07;100811.81;5019691;28;20848;-72
2022/08/26 11:25:03;;;;;;;5.83;2.33;;;;;;;26.92;65.07;100808.06;5052491;28;20469;-72
2022/08/26 11:28:04;;;;;;;3.10;1.13;;;;;;;26.67;65.28;100797.88;5051867;28;20458;-71
2022/08/26 11:30:41;;;;;;;3.97;1.70;;;;;;;26.37;66.05;100790.06;5052390;28;20493;-71